createdAt,value
2023-02-11T00:01:43.713Z,44.67
2023-02-11T00:04:45.432Z,37.77
2023-02-11T00:07:47.174Z,38.07
2023-02-11T00:10:52.895Z,42.90
2023-02-11T00:13:54.655Z,32.13
2023-02-11T00:16:57.018Z,40.30
2023-02-11T00:19:58.809Z,39.03
2023-02-11T00:23:00.527Z,36.07
2023-02-11T00:26:02.500Z,38.80
2023-02-11T00:29:05.437Z,35.53
2023-02-11T00:32:08.973Z,37.20
2023-02-11T00:35:10.746Z,38.73
2023-02-11T00:38:14.332Z,36.30
2023-02-11T00:41:16.883Z,33.53
2023-02-11T00:44:18.746Z,35.13
2023-02-11T00:47:22.879Z,40.07
2023-02-11T00:50:25.054Z,33.07
2023-02-11T00:53:26.871Z,34.73
2023-02-11T00:56:28.689Z,36.63
2023-02-11T00:59:31.383Z,36.20
2023-02-11T01:02:33.531Z,32.77
2023-02-11T01:05:35.548Z,34.20
2023-02-11T01:08:38.129Z,32.33
2023-02-11T01:11:39.979Z,33.13
2023-02-11T01:14:42.060Z,29.70
2023-02-11T01:17:43.824Z,27.23
2023-02-11T01:20:46.800Z,43.63
2023-02-11T01:23:48.533Z,37.17
2023-02-11T01:26:50.314Z,28.53
2023-02-11T01:29:52.134Z,30.33
2023-02-11T01:32:55.446Z,29.53
2023-02-11T01:36:01.776Z,31.53
2023-02-11T01:39:03.828Z,31.37
2023-02-11T01:42:06.048Z,42.90
2023-02-11T01:45:46.080Z,33.63
2023-02-11T01:48:55.214Z,30.23
2023-02-11T01:52:03.450Z,27.90
2023-02-11T01:55:31.117Z,29.07
2023-02-11T01:58:35.984Z,23.50
2023-02-11T02:01:40.668Z,31.50
2023-02-11T02:04:57.958Z,24.10
2023-02-11T02:08:13.615Z,26.33
2023-02-11T02:11:15.516Z,26.93
2023-02-11T02:14:17.814Z,33.93
2023-02-11T02:17:38.960Z,24.60
2023-02-11T02:21:11.641Z,26.07
2023-02-11T02:24:37.921Z,28.20
2023-02-11T02:27:58.124Z,28.27
2023-02-11T02:31:49.798Z,25.33
2023-02-11T02:35:17.628Z,30.90
2023-02-11T02:38:26.553Z,24.00
2023-02-11T02:41:31.734Z,36.00
2023-02-11T02:44:34.009Z,25.47
2023-02-11T02:47:35.722Z,27.67
2023-02-11T02:50:37.940Z,23.93
2023-02-11T02:53:53.366Z,30.97
2023-02-11T02:57:33.808Z,25.63
2023-02-11T03:01:02.875Z,28.40
2023-02-11T03:04:27.088Z,23.97
2023-02-11T03:07:37.292Z,28.70
2023-02-11T03:10:44.065Z,24.87
2023-02-11T03:13:47.463Z,21.93
2023-02-11T03:16:51.284Z,22.90
2023-02-11T03:19:53.773Z,24.33
2023-02-11T03:23:27.115Z,27.57
2023-02-11T03:26:39.350Z,21.17
2023-02-11T03:29:51.482Z,23.67
2023-02-11T03:33:01.377Z,27.93
2023-02-11T03:36:09.183Z,28.43
2023-02-11T03:39:14.290Z,29.57
2023-02-11T03:42:16.594Z,26.93
2023-02-11T03:45:22.249Z,35.20
2023-02-11T03:48:29.783Z,27.60
2023-02-11T03:51:32.961Z,35.23
2023-02-11T03:54:35.744Z,24.63
2023-02-11T03:57:38.068Z,19.97
2023-02-11T04:00:41.501Z,26.60
2023-02-11T04:03:43.438Z,30.13
2023-02-11T04:06:45.253Z,25.63
2023-02-11T04:09:46.987Z,34.37
2023-02-11T04:12:48.773Z,28.80
2023-02-11T04:15:50.996Z,20.87
2023-02-11T04:18:53.290Z,21.23
2023-02-11T04:21:55.018Z,21.27
2023-02-11T04:24:56.895Z,23.60
2023-02-11T04:27:58.670Z,23.60
2023-02-11T04:31:00.638Z,28.10
2023-02-11T04:34:02.536Z,27.60
2023-02-11T04:37:04.759Z,23.20
2023-02-11T04:40:07.050Z,25.83
2023-02-11T04:43:09.042Z,21.97
2023-02-11T04:46:10.891Z,28.27
2023-02-11T04:49:14.581Z,28.00
2023-02-11T04:52:16.308Z,23.20
2023-02-11T04:55:18.086Z,36.97
2023-02-11T04:58:20.150Z,23.67
2023-02-11T05:01:22.029Z,21.87
2023-02-11T05:04:24.080Z,25.50
2023-02-11T05:07:25.883Z,25.67
2023-02-11T05:10:28.611Z,24.97
2023-02-11T05:13:30.691Z,26.57
2023-02-11T05:16:32.763Z,36.17
2023-02-11T05:19:34.485Z,26.47
2023-02-11T05:22:36.232Z,25.80
2023-02-11T05:25:38.465Z,32.77
2023-02-11T05:28:40.514Z,25.97
2023-02-11T05:31:42.228Z,29.57
2023-02-11T05:34:43.940Z,30.80
2023-02-11T05:37:45.650Z,27.70
2023-02-11T05:40:47.529Z,26.60
2023-02-11T05:43:51.011Z,26.70
2023-02-11T05:46:52.772Z,36.53
2023-02-11T05:49:54.541Z,24.07
2023-02-11T05:52:56.384Z,35.73
2023-02-11T05:55:58.332Z,24.57
2023-02-11T05:59:00.358Z,36.83
2023-02-11T06:02:02.328Z,35.07
2023-02-11T06:05:04.141Z,29.07
2023-02-11T06:08:05.930Z,24.97
2023-02-11T06:11:07.655Z,29.37
2023-02-11T06:14:10.918Z,26.17
2023-02-11T06:17:15.547Z,34.13
2023-02-11T06:20:17.544Z,28.27
2023-02-11T06:23:19.318Z,29.37
2023-02-11T06:26:23.249Z,27.07
2023-02-11T06:29:24.944Z,28.70
2023-02-11T06:32:45.705Z,26.20
2023-02-11T06:35:47.711Z,27.43
2023-02-11T06:38:52.901Z,33.73
2023-02-11T06:41:55.405Z,29.93
2023-02-11T06:44:57.281Z,32.23
2023-02-11T06:47:59.247Z,33.03
2023-02-11T06:51:10.676Z,28.33
2023-02-11T06:54:13.027Z,25.50
2023-02-11T06:57:14.729Z,43.07
2023-02-11T07:00:16.923Z,44.27
2023-02-11T07:03:18.677Z,57.73
2023-02-11T07:06:24.677Z,49.63
2023-02-11T07:09:26.467Z,67.47
2023-02-11T07:12:28.178Z,40.43
2023-02-11T07:15:29.905Z,26.93
2023-02-11T07:18:31.697Z,35.77
2023-02-11T07:21:33.597Z,36.00
2023-02-11T07:24:35.336Z,35.17
2023-02-11T07:27:37.075Z,34.97
2023-02-11T07:30:38.787Z,32.57
2023-02-11T07:33:41.636Z,35.60
2023-02-11T07:36:46.094Z,43.90
2023-02-11T07:39:47.869Z,42.80
2023-02-11T07:42:49.656Z,37.23
2023-02-11T07:45:51.533Z,38.17
2023-02-11T07:48:53.822Z,36.17
2023-02-11T07:51:55.647Z,31.33
2023-02-11T07:54:57.536Z,35.33
2023-02-11T07:57:59.321Z,45.37
2023-02-11T08:01:07.029Z,32.23
2023-02-11T08:04:08.770Z,42.87
2023-02-11T08:07:10.494Z,37.30
2023-02-11T08:10:12.241Z,35.60
2023-02-11T08:13:13.979Z,40.27
2023-02-11T08:16:20.364Z,34.50
2023-02-11T08:19:22.258Z,44.80
2023-02-11T08:22:23.956Z,42.63
2023-02-11T08:25:25.744Z,36.97
2023-02-11T08:28:27.499Z,33.50
2023-02-11T08:31:38.560Z,36.50
2023-02-11T08:34:40.635Z,40.87
2023-02-11T08:37:42.358Z,38.50
2023-02-11T08:40:44.126Z,36.30
2023-02-11T08:43:46.377Z,37.80
2023-02-11T08:46:49.017Z,34.67
2023-02-11T08:49:50.851Z,43.77
2023-02-11T08:52:52.598Z,39.03
2023-02-11T08:55:55.844Z,46.90
2023-02-11T08:58:57.731Z,35.33
2023-02-11T09:01:59.487Z,41.20
2023-02-11T09:05:01.379Z,39.43
2023-02-11T09:08:03.085Z,43.23
2023-02-11T09:11:05.388Z,35.13
2023-02-11T09:14:07.729Z,41.43
2023-02-11T09:17:09.546Z,37.83
2023-02-11T09:20:11.511Z,56.87
2023-02-11T09:23:13.510Z,72.20
2023-02-11T09:26:18.209Z,38.53
2023-02-11T09:29:19.922Z,66.23
2023-02-11T09:32:21.619Z,47.40
2023-02-11T09:35:23.364Z,43.30
2023-02-11T09:38:25.065Z,44.37
2023-02-11T09:41:40.923Z,47.40
2023-02-11T09:44:46.066Z,48.90
2023-02-11T09:48:05.815Z,36.33
2023-02-11T09:51:20.255Z,39.80
2023-02-11T09:54:36.347Z,39.50
2023-02-11T09:57:38.046Z,42.30
2023-02-11T10:01:07.021Z,41.27
2023-02-11T10:04:23.816Z,55.80
2023-02-11T10:07:51.287Z,44.10
2023-02-11T10:11:01.931Z,43.60
2023-02-11T10:14:30.276Z,40.90
2023-02-11T10:17:53.171Z,50.27
2023-02-11T10:21:47.348Z,45.30
2023-02-11T10:25:00.370Z,46.07
2023-02-11T10:28:15.132Z,49.97
2023-02-11T10:31:26.755Z,42.90
2023-02-11T10:34:28.611Z,36.20
2023-02-11T10:37:30.841Z,41.33
2023-02-11T10:40:32.709Z,43.73
2023-02-11T10:43:34.961Z,53.60
2023-02-11T10:46:40.153Z,44.77
2023-02-11T10:49:44.792Z,41.73
2023-02-11T10:52:46.531Z,45.03
2023-02-11T10:55:57.224Z,46.40
2023-02-11T10:59:07.164Z,39.50
2023-02-11T11:02:34.396Z,37.73
2023-02-11T11:05:45.839Z,41.87
2023-02-11T11:08:48.827Z,41.00
2023-02-11T11:11:53.895Z,39.03
2023-02-11T11:15:14.248Z,43.53
2023-02-11T11:18:25.671Z,32.10
2023-02-11T11:21:33.594Z,36.20
2023-02-11T11:24:44.756Z,39.33
2023-02-11T11:27:50.571Z,38.50
2023-02-11T11:30:55.725Z,39.43
2023-02-11T11:34:00.104Z,42.17
2023-02-11T11:37:33.105Z,37.43
2023-02-11T11:40:35.543Z,47.37
2023-02-11T11:43:37.707Z,37.77
2023-02-11T11:46:43.889Z,41.17
2023-02-11T11:49:55.329Z,39.93
2023-02-11T11:53:04.906Z,41.77
2023-02-11T11:56:21.678Z,36.23
2023-02-11T11:59:23.459Z,40.30
2023-02-11T12:02:50.491Z,41.53
2023-02-11T12:06:12.488Z,39.40
2023-02-11T12:09:53.417Z,43.60
2023-02-11T12:13:10.218Z,38.23
2023-02-11T12:16:20.676Z,36.87
2023-02-11T12:19:42.557Z,35.67
2023-02-11T12:22:56.521Z,37.93
2023-02-11T12:26:30.433Z,38.00
2023-02-11T12:29:46.945Z,35.67
2023-02-11T12:33:18.339Z,34.87
2023-02-11T12:36:28.932Z,30.13
2023-02-11T12:40:02.730Z,29.57
2023-02-11T12:43:23.384Z,35.10
2023-02-11T12:46:33.924Z,34.50
2023-02-11T12:50:13.304Z,33.20
2023-02-11T12:53:30.059Z,32.10
2023-02-11T12:56:43.414Z,32.37
2023-02-11T13:00:00.178Z,27.80
2023-02-11T13:03:09.359Z,28.63
2023-02-11T13:06:20.310Z,26.97
2023-02-11T13:09:30.077Z,33.87
2023-02-11T13:12:52.246Z,26.90
2023-02-11T13:16:01.765Z,28.50
2023-02-11T13:19:10.561Z,30.23
2023-02-11T13:22:20.807Z,26.73
2023-02-11T13:25:43.203Z,29.70
2023-02-11T13:29:06.789Z,27.73
2023-02-11T13:32:10.322Z,29.60
2023-02-11T13:35:33.182Z,35.97
2023-02-11T13:42:04.623Z,26.33
2023-02-11T13:45:24.964Z,30.43
2023-02-11T13:48:33.095Z,25.90
2023-02-11T13:51:38.862Z,32.70
2023-02-11T13:54:41.158Z,33.07
2023-02-11T13:57:43.041Z,32.00
2023-02-11T14:00:48.286Z,36.33
2023-02-11T14:04:38.542Z,30.63
2023-02-11T14:08:27.803Z,33.77
2023-02-11T14:11:41.552Z,33.07
2023-02-11T14:15:07.783Z,32.23
2023-02-11T14:18:46.874Z,36.70
2023-02-11T14:21:49.072Z,33.03
2023-02-11T14:24:55.543Z,36.93
2023-02-11T14:28:04.760Z,29.00
2023-02-11T14:31:14.043Z,34.03
2023-02-11T14:34:35.948Z,33.43
2023-02-11T14:37:59.618Z,38.23
2023-02-11T14:41:24.939Z,34.47
2023-02-11T14:44:30.060Z,31.20
2023-02-11T14:47:45.644Z,25.50
2023-02-11T14:50:54.129Z,33.30
2023-02-11T14:54:24.394Z,30.20
2023-02-11T14:57:27.652Z,34.17
2023-02-11T15:00:29.596Z,30.60
2023-02-11T15:03:39.996Z,30.67
2023-02-11T15:06:45.586Z,32.90
2023-02-11T15:09:51.264Z,30.80
2023-02-11T15:12:53.470Z,29.83
2023-02-11T15:16:05.838Z,24.80
2023-02-11T15:19:16.726Z,30.03
2023-02-11T15:22:26.054Z,29.30
2023-02-11T15:25:28.584Z,29.80
2023-02-11T15:28:35.073Z,28.57
2023-02-11T15:31:36.960Z,25.90
2023-02-11T15:34:39.155Z,25.57
2023-02-11T15:37:40.930Z,30.30
2023-02-11T15:40:53.646Z,36.80
2023-02-11T15:43:55.497Z,24.63
2023-02-11T15:46:58.027Z,32.00
2023-02-11T15:50:00.139Z,32.63
2023-02-11T15:53:22.298Z,30.90
2023-02-11T15:56:32.894Z,25.80
2023-02-11T15:59:38.808Z,25.40
2023-02-11T16:02:45.026Z,21.50
2023-02-11T16:05:46.815Z,23.60
2023-02-11T16:09:05.703Z,28.70
2023-02-11T16:12:24.552Z,28.00
2023-02-11T16:15:35.161Z,25.53
2023-02-11T16:19:03.267Z,28.97
2023-02-11T16:22:14.117Z,35.43
2023-02-11T16:25:20.701Z,30.63
2023-02-11T16:28:22.491Z,26.00
2023-02-11T16:31:33.247Z,25.53
2023-02-11T16:34:35.551Z,27.80
2023-02-11T16:37:37.995Z,26.57
2023-02-11T16:40:40.079Z,31.00
2023-02-11T16:43:41.790Z,25.73
2023-02-11T16:46:43.942Z,30.17
2023-02-11T16:49:45.716Z,30.37
2023-02-11T16:52:49.126Z,35.70
2023-02-11T16:55:52.627Z,26.17
2023-02-11T16:58:54.327Z,30.27
2023-02-11T17:01:57.382Z,24.67
2023-02-11T17:05:01.860Z,26.77
2023-02-11T17:08:03.729Z,23.07
2023-02-11T17:11:05.638Z,34.30
2023-02-11T17:14:07.405Z,27.80
2023-02-11T17:17:10.308Z,31.20
2023-02-11T17:20:13.827Z,31.23
2023-02-11T17:23:15.669Z,32.53
2023-02-11T17:26:17.404Z,29.97
2023-02-11T17:29:22.637Z,28.87
2023-02-11T17:32:24.433Z,30.03
2023-02-11T17:35:26.401Z,33.40
2023-02-11T17:38:28.114Z,37.07
2023-02-11T17:41:30.311Z,42.73
2023-02-11T17:44:33.034Z,29.73
2023-02-11T17:47:34.803Z,29.10
2023-02-11T17:50:36.994Z,27.97
2023-02-11T17:53:38.696Z,29.10
2023-02-11T17:56:41.420Z,31.67
2023-02-11T17:59:43.218Z,33.23
2023-02-11T18:02:44.936Z,28.57
2023-02-11T18:05:46.686Z,27.67
2023-02-11T18:08:48.677Z,37.47
2023-02-11T18:11:52.456Z,31.63
2023-02-11T18:14:57.906Z,32.67
2023-02-11T18:17:59.972Z,33.10
2023-02-11T18:21:03.995Z,37.53
2023-02-11T18:24:06.920Z,38.73
2023-02-11T18:27:09.698Z,37.83
2023-02-11T18:30:15.772Z,43.90
2023-02-11T18:33:17.504Z,39.40
2023-02-11T18:36:20.834Z,38.70
2023-02-11T18:39:24.164Z,31.43
2023-02-11T18:42:26.398Z,37.00
2023-02-11T18:45:31.280Z,32.33
2023-02-11T18:48:33.089Z,33.87
2023-02-11T18:51:34.871Z,39.23
2023-02-11T18:54:36.571Z,34.87
2023-02-11T18:57:38.352Z,39.03
2023-02-11T19:00:42.987Z,36.60
2023-02-11T19:03:45.701Z,38.90
2023-02-11T19:06:49.413Z,38.70
2023-02-11T19:09:51.266Z,42.97
2023-02-11T19:12:56.217Z,37.43
2023-02-11T19:15:58.014Z,44.07
2023-02-11T19:18:59.726Z,41.67
2023-02-11T19:22:02.853Z,36.37
2023-02-11T19:25:04.889Z,39.70
2023-02-11T19:28:06.712Z,33.57
2023-02-11T19:31:09.377Z,39.33
2023-02-11T19:34:14.015Z,36.77
2023-02-11T19:37:15.793Z,46.27
2023-02-11T19:40:17.800Z,42.73
2023-02-11T19:43:19.526Z,43.67
2023-02-11T19:46:22.016Z,43.77
2023-02-11T19:49:25.795Z,33.90
2023-02-11T19:52:27.748Z,35.30
2023-02-11T19:55:29.720Z,40.60
2023-02-11T19:58:31.431Z,34.83
2023-02-11T20:01:33.204Z,36.30
2023-02-11T20:04:35.019Z,40.83
2023-02-11T20:07:36.778Z,44.47
2023-02-11T20:10:38.550Z,36.00
2023-02-11T20:13:40.400Z,42.53
2023-02-11T20:16:49.156Z,53.17
2023-02-11T20:19:51.640Z,50.90
2023-02-11T20:22:53.443Z,45.90
2023-02-11T20:25:55.438Z,35.50
2023-02-11T20:28:58.741Z,39.00
2023-02-11T20:32:00.658Z,44.50
2023-02-11T20:35:02.498Z,37.90
2023-02-11T20:38:04.237Z,35.63
2023-02-11T20:41:10.277Z,46.77
2023-02-11T20:44:12.546Z,43.00
2023-02-11T20:47:14.295Z,38.67
2023-02-11T20:50:16.144Z,36.93
2023-02-11T20:53:18.037Z,37.40
2023-02-11T20:56:23.316Z,39.73
2023-02-11T20:59:26.341Z,41.33
2023-02-11T21:02:30.182Z,43.93
2023-02-11T21:05:31.950Z,41.50
2023-02-11T21:08:33.739Z,40.23
2023-02-11T21:11:35.559Z,42.07
2023-02-11T21:14:37.300Z,40.53
2023-02-11T21:17:39.135Z,45.93
2023-02-11T21:20:43.730Z,40.63
2023-02-11T21:23:46.285Z,48.10
2023-02-11T21:26:48.139Z,42.87
2023-02-11T21:29:54.598Z,39.27
2023-02-11T21:32:58.535Z,43.17
2023-02-11T21:36:03.037Z,47.63
2023-02-11T21:39:05.869Z,54.70
2023-02-11T21:42:07.637Z,42.73
2023-02-11T21:45:09.820Z,41.83
2023-02-11T21:48:12.412Z,47.20
2023-02-11T21:51:19.846Z,53.90
2023-02-11T21:54:21.827Z,41.93
2023-02-11T21:57:24.052Z,38.00
2023-02-11T22:00:25.934Z,45.23
2023-02-11T22:03:28.047Z,34.53
2023-02-11T22:06:33.174Z,36.30
2023-02-11T22:09:34.948Z,43.50
2023-02-11T22:12:36.667Z,38.70
2023-02-11T22:15:39.369Z,35.77
2023-02-11T22:18:42.053Z,43.43
2023-02-11T22:21:43.786Z,38.13
2023-02-11T22:24:46.453Z,46.23
2023-02-11T22:27:48.225Z,35.07
2023-02-11T22:30:55.377Z,38.03
2023-02-11T22:33:57.921Z,36.93
2023-02-11T22:36:59.656Z,39.50
2023-02-11T22:40:01.412Z,41.63
2023-02-11T22:43:03.127Z,40.30
2023-02-11T22:46:07.304Z,34.20
2023-02-11T22:49:11.425Z,38.00
2023-02-11T22:52:17.181Z,41.33
2023-02-11T22:55:19.217Z,36.43
2023-02-11T22:58:20.925Z,37.67
2023-02-11T23:01:22.705Z,39.37
2023-02-11T23:04:24.456Z,35.10
2023-02-11T23:07:26.192Z,30.53
2023-02-11T23:10:27.957Z,36.30
2023-02-11T23:13:29.905Z,34.83
2023-02-11T23:16:34.091Z,32.93
2023-02-11T23:19:35.884Z,31.77
2023-02-11T23:22:37.580Z,36.40
2023-02-11T23:25:44.232Z,32.93
2023-02-11T23:28:46.930Z,30.60
2023-02-11T23:31:49.656Z,29.10
2023-02-11T23:34:52.658Z,31.83
2023-02-11T23:37:54.476Z,34.30
2023-02-11T23:40:56.186Z,29.27
2023-02-11T23:43:58.212Z,31.90
2023-02-11T23:46:59.950Z,27.20
2023-02-11T23:50:01.722Z,30.03
2023-02-11T23:53:03.419Z,26.97
2023-02-11T23:56:14.704Z,29.50
2023-02-11T23:59:17.003Z,26.77
